Time;durP1;ratioP1;P1;durP2;ratioP2;P2;SDS_P1;SDS_P2;PMS_P1;PMS_P2;Temp;Humidity;BMP_temperature;BMP_pressure;BME280_temperature;BME280_humidity;BME280_pressure;Samples;Min_cycle;Max_cycle;Signal;HPM_P1;HPM_P2
2022/03/18 00:00:54;;;;;;;2.45;2.25;;;;;;;12.63;39.60;102213.55;1793508;80;20978;-64
2022/03/18 00:03:21;;;;;;;2.98;2.37;;;;;;;12.62;39.62;102213.70;1793523;80;21631;-65
2022/03/18 00:05:48;;;;;;;3.00;2.55;;;;;;;12.61;39.63;102215.49;1793613;80;21006;-64
2022/03/18 00:08:15;;;;;;;2.92;2.62;;;;;;;12.59;39.63;102217.44;1793567;80;21013;-64
2022/03/18 00:10:42;;;;;;;4.70;2.47;;;;;;;12.58;39.63;102217.92;1793695;80;21300;-64
2022/03/18 00:13:08;;;;;;;2.75;2.50;;;;;;;12.57;39.62;102218.04;1792670;79;21002;-64
2022/03/18 00:15:38;;;;;;;2.47;2.20;;;;;;;12.56;39.65;102216.36;1793413;80;21014;-64
2022/03/18 00:18:05;;;;;;;2.58;2.33;;;;;;;12.54;39.64;102214.30;1793297;80;21030;-64
2022/03/18 00:20:31;;;;;;;2.80;2.33;;;;;;;12.52;39.66;102218.91;1793301;80;21553;-64
2022/03/18 00:22:59;;;;;;;2.85;2.47;;;;;;;12.51;39.66;102219.86;1793466;80;22079;-64
2022/03/18 00:25:25;;;;;;;2.90;2.40;;;;;;;12.50;39.66;102227.52;1793300;80;21046;-64
2022/03/18 00:27:52;;;;;;;3.37;2.70;;;;;;;12.49;39.70;102224.47;1793427;80;20998;-64
2022/03/18 00:30:20;;;;;;;2.75;2.30;;;;;;;12.48;39.69;102228.96;1781538;80;21003;-63
2022/03/18 00:32:49;;;;;;;2.47;2.27;;;;;;;12.47;39.69;102225.08;1782095;80;21471;-64
2022/03/18 00:35:17;;;;;;;2.60;2.37;;;;;;;12.45;39.70;102230.52;1781548;80;21347;-64
2022/03/18 00:37:44;;;;;;;3.05;2.58;;;;;;;12.43;39.71;102224.45;1781673;80;20978;-64
2022/03/18 00:40:11;;;;;;;3.10;2.80;;;;;;;12.43;39.72;102229.80;1781704;80;21589;-64
2022/03/18 00:42:38;;;;;;;3.00;2.37;;;;;;;12.42;39.73;102236.56;1781571;80;21949;-64
2022/03/18 00:45:06;;;;;;;3.05;2.37;;;;;;;12.41;39.73;102238.89;1782176;80;21030;-64
2022/03/18 00:53:05;;;;;;;3.05;2.45;;;;;;;12.37;39.75;102235.61;1793722;80;21037;-65
2022/03/18 00:55:31;;;;;;;3.20;2.87;;;;;;;12.35;39.75;102233.05;1793506;80;21002;-64
2022/03/18 00:57:58;;;;;;;2.87;2.60;;;;;;;12.33;39.76;102235.48;1793704;80;21022;-64
2022/03/18 01:00:25;;;;;;;2.95;2.35;;;;;;;12.32;39.78;102241.77;1791196;79;21239;-64
2022/03/18 01:02:51;;;;;;;3.08;2.47;;;;;;;12.30;39.79;102240.55;1782770;79;21005;-64
2022/03/18 01:05:19;;;;;;;3.27;2.80;;;;;;;12.29;39.79;102242.02;1762253;81;21014;-64
2022/03/18 01:07:46;;;;;;;3.33;2.77;;;;;;;12.27;39.80;102238.13;1762207;81;21009;-64
2022/03/18 01:10:14;;;;;;;3.25;2.70;;;;;;;12.27;39.81;102244.80;1762229;81;21005;-64
2022/03/18 01:12:41;;;;;;;2.50;2.30;;;;;;;12.27;39.82;102247.95;1762386;81;21852;-64
2022/03/18 01:15:09;;;;;;;3.62;2.83;;;;;;;12.25;39.80;102253.39;1762252;81;21006;-63
2022/03/18 01:17:37;;;;;;;3.42;2.92;;;;;;;12.24;39.82;102251.69;1762267;81;21060;-65
2022/03/18 01:20:06;;;;;;;3.02;2.70;;;;;;;12.23;39.83;102247.80;1776552;80;21033;-63
2022/03/18 01:22:33;;;;;;;3.12;2.50;;;;;;;12.22;39.84;102253.62;1793631;80;21523;-63
2022/03/18 01:25:00;;;;;;;2.98;2.50;;;;;;;12.20;39.83;102250.22;1793590;80;21874;-64
2022/03/18 01:27:27;;;;;;;3.45;2.62;;;;;;;12.19;39.81;102257.88;1793433;80;21061;-65
2022/03/18 01:29:53;;;;;;;2.92;2.55;;;;;;;12.18;39.82;102260.16;1793625;80;21018;-65
2022/03/18 01:32:20;;;;;;;3.45;2.50;;;;;;;12.16;39.82;102258.93;1793432;80;20995;-63
2022/03/18 01:34:46;;;;;;;2.85;2.37;;;;;;;12.16;39.83;102260.27;1793679;80;21037;-64
2022/03/18 01:37:13;;;;;;;2.60;2.30;;;;;;;12.14;39.82;102248.03;1793372;80;21226;-64
2022/03/18 01:39:41;;;;;;;2.45;2.25;;;;;;;12.15;39.85;102263.07;1793578;80;21077;-64
2022/03/18 01:42:07;;;;;;;2.75;2.47;;;;;;;12.14;39.84;102264.02;1793618;80;20998;-65
2022/03/18 01:44:41;;;;;;;2.98;2.40;;;;;;;12.13;39.84;102266.30;1793517;80;21088;-65
2022/03/18 01:47:09;;;;;;;3.05;2.58;;;;;;;12.12;39.84;102269.95;1793548;80;21010;-65
2022/03/18 01:49:36;;;;;;;3.05;2.65;;;;;;;12.10;39.85;102275.39;1793711;80;21230;-64
2022/03/18 01:52:05;;;;;;;3.62;2.60;;;;;;;12.10;39.86;102271.88;1793581;80;21060;-64
2022/03/18 01:54:50;;;;;;;2.62;2.42;;;;;;;12.08;39.86;102275.99;1793152;80;21022;-64
2022/03/18 01:57:23;;;;;;;2.50;2.30;;;;;;;12.07;39.86;102270.77;1793593;80;21485;-64
2022/03/18 01:59:51;;;;;;;3.45;2.37;;;;;;;12.05;39.88;102274.03;1793799;80;21049;-64
2022/03/18 02:02:19;;;;;;;3.37;2.85;;;;;;;12.04;39.87;102270.53;1793501;79;21246;-65
2022/03/18 02:04:46;;;;;;;2.45;2.25;;;;;;;12.03;39.89;102270.64;1793693;80;21033;-64
2022/03/18 02:07:15;;;;;;;2.98;2.37;;;;;;;12.02;39.89;102271.63;1791485;80;21502;-64
2022/03/18 02:09:44;;;;;;;4.00;2.58;;;;;;;12.00;39.89;102273.91;1766304;80;21010;-64
2022/03/18 02:12:12;;;;;;;3.20;2.72;;;;;;;11.99;39.90;102274.89;1763274;80;21017;-64
2022/03/18 02:14:43;;;;;;;2.90;2.50;;;;;;;11.99;39.90;102275.34;1762349;81;21025;-64
2022/03/18 02:17:13;;;;;;;3.37;2.65;;;;;;;11.98;39.91;102277.66;1762139;81;21548;-64
2022/03/18 02:19:41;;;;;;;2.87;2.40;;;;;;;11.97;39.92;102274.13;1762231;81;21556;-64
2022/03/18 02:22:20;;;;;;;2.95;2.42;;;;;;;11.96;39.92;102282.26;1762244;81;21001;-64
2022/03/18 02:24:49;;;;;;;3.10;2.72;;;;;;;11.94;39.92;102278.86;1750285;81;21024;-64
2022/03/18 02:27:16;;;;;;;3.15;2.70;;;;;;;11.94;39.91;102288.19;1763764;80;21498;-65
2022/03/18 02:29:43;;;;;;;2.98;2.47;;;;;;;11.92;39.93;102281.63;1762338;81;21533;-64
2022/03/18 02:32:10;;;;;;;3.22;2.67;;;;;;;11.91;39.93;102285.73;1762163;81;20994;-64
2022/03/18 02:34:39;;;;;;;2.62;2.42;;;;;;;11.91;39.93;102286.58;1762331;81;21080;-64
2022/03/18 02:37:07;;;;;;;3.15;2.62;;;;;;;11.90;39.92;102286.69;1762276;81;20997;-64
2022/03/18 02:39:34;;;;;;;2.60;2.25;;;;;;;11.88;39.93;102291.25;1762271;81;21241;-64
2022/03/18 02:42:01;;;;;;;2.83;2.45;;;;;;;11.87;39.91;102295.73;1762168;81;21017;-64
2022/03/18 02:44:27;;;;;;;3.25;2.37;;;;;;;11.85;39.92;102293.66;1766360;80;21022;-63
2022/03/18 02:46:54;;;;;;;3.98;3.58;;;;;;;11.85;39.96;102297.66;1791399;80;21024;-64
2022/03/18 02:49:21;;;;;;;2.83;2.50;;;;;;;11.85;39.95;102298.99;1742134;80;21021;-64
2022/03/18 02:51:47;;;;;;;2.70;2.22;;;;;;;11.83;39.93;102300.92;1793687;80;21141;-64
2022/03/18 02:54:14;;;;;;;2.72;2.45;;;;;;;11.83;39.93;102305.41;1793407;80;20998;-63
2022/03/18 02:56:40;;;;;;;3.27;2.60;;;;;;;11.81;39.93;102305.03;1793704;80;21029;-63
2022/03/18 02:59:09;;;;;;;3.02;2.60;;;;;;;11.81;39.93;102306.84;1793608;80;21065;-64
2022/03/18 03:01:36;;;;;;;2.47;2.27;;;;;;;11.79;39.94;102310.95;1789733;80;21007;-65
2022/03/18 03:04:02;;;;;;;3.52;2.87;;;;;;;11.78;39.94;102307.06;1780774;80;21210;-66
2022/03/18 03:09:18;;;;;;;3.17;2.62;;;;;;;11.77;39.96;102326.69;1780793;80;21037;-63
2022/03/18 03:11:46;;;;;;;2.60;2.40;;;;;;;11.75;39.95;102333.45;1781917;80;21006;-64
2022/03/18 03:14:14;;;;;;;3.25;2.72;;;;;;;11.75;39.95;102336.60;1777162;80;21009;-63
2022/03/18 03:16:42;;;;;;;3.10;2.72;;;;;;;11.73;39.95;102331.87;1793654;80;21224;-65
2022/03/18 03:19:10;;;;;;;3.15;2.85;;;;;;;11.72;39.98;102332.33;1778179;80;20986;-65
2022/03/18 03:21:38;;;;;;;3.95;2.70;;;;;;;11.72;39.97;102334.15;1762175;81;21036;-64
2022/03/18 03:24:06;;;;;;;3.92;2.50;;;;;;;11.71;39.98;102336.46;1762315;81;21084;-64
2022/03/18 03:26:33;;;;;;;2.98;2.50;;;;;;;11.69;39.99;102331.73;1762491;81;21069;-64
2022/03/18 03:29:00;;;;;;;3.95;2.58;;;;;;;11.68;39.99;102335.34;1762333;81;21258;-64
2022/03/18 03:31:26;;;;;;;3.42;2.75;;;;;;;11.67;39.99;102339.83;1762063;81;21101;-64
2022/03/18 03:33:54;;;;;;;2.72;2.45;;;;;;;11.66;40.01;102338.11;1762249;81;21021;-64
2022/03/18 03:36:20;;;;;;;3.22;2.72;;;;;;;11.65;39.99;102336.88;1773351;80;21085;-64
2022/03/18 03:38:47;;;;;;;2.75;2.47;;;;;;;11.65;40.00;102342.20;1780878;80;21100;-64
2022/03/18 03:41:14;;;;;;;2.70;2.50;;;;;;;11.63;39.98;102342.80;1780774;80;21242;-63
2022/03/18 03:43:41;;;;;;;2.92;2.60;;;;;;;11.61;39.98;102346.44;1780762;80;21486;-63
2022/03/18 03:46:08;;;;;;;2.77;2.30;;;;;;;11.60;40.00;102347.88;1792490;80;21010;-63
2022/03/18 03:48:34;;;;;;;3.85;2.70;;;;;;;11.61;39.98;102349.59;1793544;80;21069;-63
2022/03/18 03:51:01;;;;;;;3.02;2.72;;;;;;;11.59;40.00;102353.69;1793603;80;21017;-64
2022/03/18 03:53:28;;;;;;;2.87;2.47;;;;;;;11.58;40.00;102361.78;1785339;80;21301;-64
2022/03/18 03:55:55;;;;;;;2.92;2.50;;;;;;;11.57;40.00;102362.73;1780717;80;21065;-64
2022/03/18 03:58:21;;;;;;;2.70;2.50;;;;;;;11.56;40.01;102359.72;1780737;80;20979;-64
2022/03/18 04:00:48;;;;;;;3.62;2.87;;;;;;;11.55;40.01;102354.88;1780813;80;21069;-64
2022/03/18 04:03:14;;;;;;;3.90;2.77;;;;;;;11.55;39.99;102371.31;1756115;80;21017;-65
2022/03/18 04:05:42;;;;;;;3.15;2.75;;;;;;;11.55;40.00;102369.52;1750311;82;21215;-64
2022/03/18 04:08:09;;;;;;;3.83;2.60;;;;;;;11.53;40.02;102371.91;1750425;82;21062;-64
2022/03/18 04:10:42;;;;;;;3.35;2.72;;;;;;;11.52;40.02;102374.21;1759802;81;21045;-64
2022/03/18 04:13:04;;;;;;;3.90;2.87;;;;;;;11.50;40.02;102376.13;1764571;81;21037;-64
2022/03/18 04:15:31;;;;;;;3.80;2.95;;;;;;;11.50;40.01;102380.97;1765197;81;21057;-64
2022/03/18 04:17:58;;;;;;;3.37;2.90;;;;;;;11.50;40.02;102386.78;1766509;81;21299;-63
2022/03/18 04:20:25;;;;;;;3.50;2.80;;;;;;;11.48;40.03;102384.71;1765478;81;21096;-64
2022/03/18 04:22:51;;;;;;;3.25;2.70;;;;;;;11.47;40.04;102386.50;1765073;81;21021;-63
2022/03/18 04:25:24;;;;;;;3.02;2.62;;;;;;;11.46;40.04;102387.47;1765166;81;21073;-64
2022/03/18 04:27:48;;;;;;;3.05;2.70;;;;;;;11.46;40.04;102391.95;1741613;81;21073;-64
2022/03/18 04:30:15;;;;;;;3.75;2.80;;;;;;;11.46;40.00;102395.46;1734779;82;21257;-64
2022/03/18 04:32:42;;;;;;;2.95;2.60;;;;;;;11.44;40.03;102392.06;1734810;82;21034;-64
2022/03/18 04:35:10;;;;;;;3.25;2.70;;;;;;;11.43;40.05;102387.68;1734722;82;21267;-63
2022/03/18 04:37:39;;;;;;;3.22;2.92;;;;;;;11.43;40.05;102397.00;1734938;82;21604;-64
2022/03/18 04:40:09;;;;;;;3.77;2.85;;;;;;;11.43;40.05;102392.16;1734786;82;21025;-64
2022/03/18 04:42:36;;;;;;;3.65;3.30;;;;;;;11.43;40.05;102401.48;1734944;82;21099;-63
2022/03/18 04:45:03;;;;;;;3.08;2.77;;;;;;;11.42;40.06;102404.62;1749546;81;21256;-63
2022/03/18 04:47:33;;;;;;;3.60;3.08;;;;;;;11.41;40.07;102405.57;1765356;81;21069;-64
2022/03/18 04:50:00;;;;;;;3.27;2.72;;;;;;;11.41;40.07;102410.89;1765207;81;21053;-63
2022/03/18 04:52:27;;;;;;;3.72;3.10;;;;;;;11.40;40.08;102422.03;1765147;81;21065;-64
2022/03/18 04:54:53;;;;;;;3.40;2.95;;;;;;;11.40;40.08;102418.52;1765092;81;21141;-64
2022/03/18 04:57:20;;;;;;;3.08;2.77;;;;;;;11.40;40.10;102423.85;1765022;81;20990;-63
2022/03/18 04:59:48;;;;;;;3.72;3.15;;;;;;;11.40;40.09;102425.18;1765182;81;21513;-65
2022/03/18 05:02:16;;;;;;;3.27;2.95;;;;;;;11.40;40.10;102425.18;1769159;80;21050;-64
2022/03/18 05:04:44;;;;;;;3.40;2.70;;;;;;;11.40;40.10;102430.50;1783858;80;21045;-65
2022/03/18 05:07:11;;;;;;;3.30;2.60;;;;;;;11.41;40.10;102424.20;1783775;80;22083;-63
2022/03/18 05:09:39;;;;;;;4.08;2.90;;;;;;;11.40;40.09;102427.36;1783704;80;21030;-64
2022/03/18 05:12:09;;;;;;;2.67;2.40;;;;;;;11.41;40.08;102426.41;1783728;80;21002;-64
2022/03/18 05:14:38;;;;;;;3.77;2.83;;;;;;;11.42;40.08;102428.58;1783080;80;21015;-63
2022/03/18 05:17:05;;;;;;;3.00;2.70;;;;;;;11.42;40.08;102423.26;1782978;80;21037;-65
2022/03/18 05:19:32;;;;;;;3.75;2.83;;;;;;;11.42;40.07;102432.58;1784075;80;21196;-65
2022/03/18 05:22:01;;;;;;;3.45;2.85;;;;;;;11.43;40.08;102428.94;1783469;80;21513;-64
2022/03/18 05:24:27;;;;;;;4.53;3.10;;;;;;;11.44;40.08;102429.33;1770169;80;21601;-64
2022/03/18 05:26:55;;;;;;;3.10;2.70;;;;;;;11.44;40.07;102431.98;1752905;81;20969;-64
2022/03/18 05:29:22;;;;;;;3.40;2.98;;;;;;;11.45;40.08;102430.17;1752883;81;21050;-63
2022/03/18 05:31:49;;;;;;;2.87;2.55;;;;;;;11.46;40.07;102435.39;1753088;81;21546;-64
2022/03/18 05:34:15;;;;;;;3.40;2.85;;;;;;;11.45;40.06;102437.67;1753888;80;21529;-65
2022/03/18 05:36:42;;;;;;;3.47;3.02;;;;;;;11.47;40.07;102437.08;1752852;81;21061;-63
2022/03/18 05:39:08;;;;;;;2.87;2.58;;;;;;;11.48;40.06;102433.47;1752841;81;21334;-64
2022/03/18 05:41:35;;;;;;;3.70;3.17;;;;;;;11.49;40.08;102445.84;1753168;81;21033;-64
2022/03/18 05:44:02;;;;;;;3.62;2.95;;;;;;;11.50;40.03;102446.67;1767770;80;21093;-64
2022/03/18 05:46:29;;;;;;;3.80;2.90;;;;;;;11.51;40.03;102446.58;1783846;80;21081;-64
2022/03/18 05:48:55;;;;;;;3.20;2.90;;;;;;;11.51;40.07;102450.57;1784086;80;21545;-64
2022/03/18 05:51:22;;;;;;;3.00;2.58;;;;;;;11.53;40.04;102450.44;1782701;80;21022;-65
2022/03/18 05:53:48;;;;;;;3.55;2.80;;;;;;;11.54;40.03;102460.98;1783980;80;21672;-64
2022/03/18 05:58:59;;;;;;;3.00;2.65;;;;;;;11.56;40.02;102459.55;1783890;80;21077;-64
2022/03/18 06:01:26;;;;;;;3.20;2.67;;;;;;;11.57;40.00;102470.55;1783810;80;21046;-64
2022/03/18 06:03:53;;;;;;;3.27;2.90;;;;;;;11.57;40.01;102467.89;1779513;80;21034;-64
2022/03/18 06:06:20;;;;;;;3.30;2.80;;;;;;;11.57;40.00;102472.77;1778692;80;21061;-63
2022/03/18 06:11:49;;;;;;;3.17;2.70;;;;;;;11.60;40.02;102474.34;1778613;80;21026;-63
2022/03/18 06:14:18;;;;;;;5.12;2.95;;;;;;;11.62;39.99;102481.74;1778648;80;21041;-64
2022/03/18 06:16:49;;;;;;;4.58;2.55;;;;;;;11.62;39.99;102483.08;1778633;80;21022;-64
2022/03/18 06:19:19;;;;;;;3.70;3.20;;;;;;;11.63;39.98;102479.92;1778653;80;21017;-64
2022/03/18 06:21:46;;;;;;;3.27;2.98;;;;;;;11.65;39.99;102489.98;1778084;80;21119;-64
2022/03/18 06:24:13;;;;;;;3.40;2.75;;;;;;;11.64;40.00;102482.48;1778421;80;21073;-65
2022/03/18 06:26:39;;;;;;;2.72;2.45;;;;;;;11.65;40.00;102482.88;1757122;80;21041;-64
2022/03/18 06:29:06;;;;;;;3.45;2.70;;;;;;;11.66;39.98;102481.89;1760643;80;21057;-64
2022/03/18 06:31:33;;;;;;;3.55;3.10;;;;;;;11.69;39.99;102482.19;1775291;80;22125;-64
2022/03/18 06:33:59;;;;;;;3.30;3.00;;;;;;;11.70;39.97;102483.87;1778572;80;21143;-64
2022/03/18 06:36:26;;;;;;;3.77;3.17;;;;;;;11.72;39.96;102484.61;1778557;80;20990;-64
2022/03/18 06:38:53;;;;;;;3.00;2.70;;;;;;;11.73;39.96;102483.66;1778661;80;21026;-65
2022/03/18 06:41:19;;;;;;;4.15;3.30;;;;;;;11.74;39.97;102483.56;1778774;80;21065;-64
2022/03/18 06:43:47;;;;;;;3.15;2.85;;;;;;;11.76;39.97;102482.97;1762028;80;21025;-64
2022/03/18 06:46:14;;;;;;;3.45;2.80;;;;;;;11.78;39.95;102487.70;1766061;81;21393;-64
2022/03/18 06:48:42;;;;;;;3.95;3.05;;;;;;;11.81;39.94;102486.63;1766073;80;21025;-66
2022/03/18 06:51:08;;;;;;;3.00;2.70;;;;;;;11.80;39.93;102484.45;1766125;80;21573;-64
2022/03/18 06:53:35;;;;;;;3.45;2.77;;;;;;;11.82;39.92;102481.69;1766077;81;20998;-65
2022/03/18 06:56:04;;;;;;;3.25;2.62;;;;;;;11.83;39.91;102486.03;1766067;80;20990;-64
2022/03/18 06:58:32;;;;;;;3.22;2.70;;;;;;;11.86;39.91;102488.49;1766001;81;21182;-64
2022/03/18 07:00:58;;;;;;;3.37;3.00;;;;;;;11.86;39.92;102485.83;1751166;80;21096;-64
2022/03/18 07:03:25;;;;;;;3.40;3.10;;;;;;;11.88;39.90;102489.23;1750315;81;21130;-64
2022/03/18 07:05:52;;;;;;;2.90;2.50;;;;;;;11.91;39.89;102487.69;1752870;81;21050;-64
2022/03/18 07:08:18;;;;;;;4.10;3.00;;;;;;;11.92;39.93;102490.75;1752732;81;21085;-63
2022/03/18 07:10:45;;;;;;;3.37;2.67;;;;;;;11.93;39.90;102496.91;1752843;81;21260;-64
2022/03/18 07:13:15;;;;;;;3.20;2.75;;;;;;;11.94;39.90;102491.48;1752785;81;21054;-64
2022/03/18 07:15:42;;;;;;;3.00;2.52;;;;;;;11.95;39.90;102494.50;1752834;81;21061;-65
2022/03/18 07:18:09;;;;;;;2.87;2.60;;;;;;;11.97;39.89;102495.23;1754133;80;21026;-65
2022/03/18 07:20:37;;;;;;;3.20;2.83;;;;;;;11.99;39.89;102501.80;1752789;81;21117;-64
2022/03/18 07:23:09;;;;;;;3.27;2.75;;;;;;;12.00;39.89;102499.03;1752805;81;21260;-64
2022/03/18 07:25:45;;;;;;;3.95;2.98;;;;;;;12.02;39.87;102498.92;1781274;80;20970;-63
2022/03/18 07:28:13;;;;;;;3.15;2.75;;;;;;;12.03;39.88;102503.77;1783750;80;21030;-65
2022/03/18 07:30:42;;;;;;;3.27;2.55;;;;;;;12.06;39.87;102510.22;1783880;80;21603;-64
2022/03/18 07:33:09;;;;;;;4.53;3.20;;;;;;;12.07;39.86;102509.24;1783640;80;21025;-64
2022/03/18 07:35:36;;;;;;;3.25;2.95;;;;;;;12.09;39.86;102505.53;1766936;80;21222;-65
2022/03/18 07:38:05;;;;;;;4.03;3.00;;;;;;;12.11;39.85;102510.72;1781639;80;21026;-64
2022/03/18 07:40:31;;;;;;;4.05;2.72;;;;;;;12.12;39.83;102511.11;1783872;80;20998;-64
2022/03/18 07:42:58;;;;;;;3.12;2.83;;;;;;;12.13;39.82;102511.45;1783884;80;20986;-64
2022/03/18 07:45:27;;;;;;;3.87;2.70;;;;;;;12.15;39.81;102502.91;1783793;80;21565;-64
2022/03/18 07:47:56;;;;;;;4.03;3.20;;;;;;;12.16;39.80;102508.09;1783800;80;21246;-64
2022/03/18 07:50:24;;;;;;;3.10;2.80;;;;;;;12.18;39.80;102504.84;1778309;80;21545;-64
2022/03/18 07:53:00;;;;;;;3.47;3.02;;;;;;;12.19;39.78;102505.71;1752858;81;21026;-64
2022/03/18 07:55:29;;;;;;;3.22;2.90;;;;;;;12.22;39.78;102496.14;1752794;81;21018;-63
2022/03/18 07:57:56;;;;;;;2.52;2.22;;;;;;;12.24;39.77;102503.55;1752785;81;21041;-64
2022/03/18 08:00:25;;;;;;;2.92;2.65;;;;;;;12.25;39.75;102494.59;1752794;80;21033;-64
2022/03/18 08:02:56;;;;;;;3.17;2.80;;;;;;;12.28;39.74;102502.84;1751936;81;21704;-64
2022/03/18 08:05:26;;;;;;;3.50;2.92;;;;;;;12.31;39.73;102511.96;1747749;82;21002;-64
2022/03/18 08:07:57;;;;;;;3.40;2.77;;;;;;;12.31;39.72;102504.80;1748759;80;21013;-64
2022/03/18 08:10:29;;;;;;;3.00;2.70;;;;;;;12.33;39.71;102508.21;1747676;82;20995;-64
2022/03/18 08:12:55;;;;;;;3.15;2.50;;;;;;;12.34;39.70;102504.59;1747450;82;22048;-64
2022/03/18 08:15:23;;;;;;;2.98;2.37;;;;;;;12.37;39.70;102504.84;1747688;82;21361;-65
2022/03/18 08:17:52;;;;;;;3.15;2.72;;;;;;;12.38;39.70;102504.73;1686819;82;21029;-65
2022/03/18 08:20:19;;;;;;;3.25;2.67;;;;;;;12.41;39.69;102505.48;1747759;82;21045;-65
2022/03/18 08:22:47;;;;;;;2.90;2.60;;;;;;;12.42;39.69;102507.16;1747587;82;21026;-64
2022/03/18 08:25:15;;;;;;;3.33;2.65;;;;;;;12.43;39.73;102504.87;1766137;80;21247;-65
2022/03/18 08:27:42;;;;;;;3.17;2.72;;;;;;;12.45;39.71;102510.95;1778571;80;20998;-64
2022/03/18 08:30:13;;;;;;;2.72;2.52;;;;;;;12.48;39.74;102516.06;1778608;80;21057;-65
2022/03/18 08:32:42;;;;;;;3.75;2.85;;;;;;;12.49;39.72;102503.92;1778521;80;21026;-66
2022/03/18 08:35:09;;;;;;;3.00;2.30;;;;;;;12.53;39.73;102508.56;1778599;80;21029;-64
2022/03/18 08:40:32;;;;;;;3.52;2.62;;;;;;;12.59;39.71;102504.09;1777403;80;21002;-63
2022/03/18 08:43:06;;;;;;;3.47;2.65;;;;;;;12.63;39.71;102510.91;1761252;80;21080;-65
2022/03/18 08:45:34;;;;;;;3.10;2.80;;;;;;;12.67;39.71;102510.20;1765777;81;21529;-63
2022/03/18 08:48:01;;;;;;;2.85;2.55;;;;;;;12.71;39.71;102507.66;1765798;81;21077;-64
2022/03/18 08:50:28;;;;;;;3.15;2.60;;;;;;;12.73;39.70;102510.61;1765629;81;21193;-64
2022/03/18 08:52:56;;;;;;;2.55;2.30;;;;;;;12.77;39.71;102501.89;1765684;81;21535;-64
2022/03/18 08:55:25;;;;;;;3.72;2.58;;;;;;;12.81;39.73;102498.52;1765648;81;21465;-65
2022/03/18 08:58:11;;;;;;;3.27;2.65;;;;;;;12.85;39.77;102497.32;1764379;80;21324;-65
2022/03/18 09:00:56;;;;;;;3.42;2.65;;;;;;;12.89;39.76;102500.96;1747861;82;21007;-64
2022/03/18 09:03:41;;;;;;;3.52;2.80;;;;;;;12.93;39.82;102504.25;1749302;81;21025;-64
2022/03/18 09:06:28;;;;;;;2.33;2.10;;;;;;;12.97;39.85;102499.89;1752780;81;21093;-64
2022/03/18 09:09:04;;;;;;;3.42;2.65;;;;;;;13.02;39.89;102503.56;1752865;81;21054;-64
2022/03/18 09:11:32;;;;;;;3.45;2.80;;;;;;;13.06;39.94;102494.35;1752760;81;21042;-64
2022/03/18 09:14:01;;;;;;;2.70;2.47;;;;;;;13.11;39.94;102493.98;1752827;81;21013;-65
2022/03/18 09:18:28;;;;;;;3.20;2.90;;;;;;;13.24;39.89;102485.90;1889292;76;28595;-64
2022/03/18 09:20:59;;;;;;;2.52;2.30;;;;;;;13.27;39.88;102497.66;1860208;77;21053;-65
2022/03/18 09:23:26;;;;;;;2.90;2.60;;;;;;;13.32;39.89;102487.52;1860223;77;21237;-64
2022/03/18 09:25:54;;;;;;;4.35;2.70;;;;;;;13.38;39.85;102475.02;1825318;77;20996;-64
2022/03/18 09:28:22;;;;;;;2.60;2.37;;;;;;;13.44;39.85;102487.04;1860055;77;20890;-64
2022/03/18 09:30:50;;;;;;;2.90;2.70;;;;;;;13.52;39.97;102488.62;1860256;77;21164;-64
2022/03/18 09:33:19;;;;;;;3.25;2.33;;;;;;;13.59;40.25;102487.67;1841989;77;20968;-64
2022/03/18 09:35:46;;;;;;;2.67;2.35;;;;;;;13.66;40.37;102482.22;1826534;78;21233;-64
2022/03/18 09:38:13;;;;;;;4.20;2.45;;;;;;;13.74;40.32;102479.78;1826407;78;20984;-65
2022/03/18 09:40:42;;;;;;;2.70;2.47;;;;;;;13.80;40.22;102481.95;1826528;78;21009;-65
2022/03/18 09:43:09;;;;;;;3.22;2.65;;;;;;;13.89;40.18;102477.71;1826530;78;21532;-64
2022/03/18 09:45:39;;;;;;;3.10;2.80;;;;;;;13.96;40.05;102476.22;1826597;78;21529;-66
2022/03/18 09:48:09;;;;;;;2.77;2.00;;;;;;;14.04;39.96;102479.61;1859976;77;21245;-64
2022/03/18 09:50:38;;;;;;;3.08;2.50;;;;;;;14.13;39.91;102482.89;1837507;77;20993;-65
2022/03/18 09:53:05;;;;;;;3.12;2.42;;;;;;;14.22;40.04;102481.30;1826922;78;21083;-64
2022/03/18 09:55:34;;;;;;;2.80;2.50;;;;;;;14.30;40.19;102478.34;1826503;78;21486;-65
2022/03/18 09:58:02;;;;;;;2.67;2.30;;;;;;;14.39;40.35;102486.58;1826572;78;21594;-64
2022/03/18 10:00:30;;;;;;;3.45;2.50;;;;;;;14.47;40.47;102489.50;1794827;78;22163;-64
2022/03/18 10:03:12;;;;;;;2.52;2.33;;;;;;;14.56;40.46;102482.02;1826439;78;21021;-65
2022/03/18 10:05:58;;;;;;;2.80;2.52;;;;;;;14.64;40.39;102482.29;1826581;78;21520;-63
2022/03/18 10:08:42;;;;;;;3.02;2.50;;;;;;;14.74;40.29;102479.20;1859653;77;21005;-64
2022/03/18 10:11:30;;;;;;;2.67;2.27;;;;;;;14.84;40.20;102489.14;1860210;77;21072;-65
2022/03/18 10:14:05;;;;;;;2.40;2.20;;;;;;;14.93;40.17;102477.16;1860484;77;21182;-64
2022/03/18 10:16:44;;;;;;;2.58;2.37;;;;;;;15.03;40.04;102479.91;1859927;77;21064;-64
2022/03/18 10:19:17;;;;;;;2.62;2.20;;;;;;;15.12;39.95;102478.25;1860218;77;21001;-63
2022/03/18 10:22:07;;;;;;;2.42;2.22;;;;;;;15.21;39.85;102478.81;1817642;78;21006;-64
2022/03/18 10:24:37;;;;;;;2.40;2.20;;;;;;;15.31;39.82;102470.83;1819835;78;21053;-64
2022/03/18 10:27:15;;;;;;;2.27;2.08;;;;;;;15.41;39.72;102475.73;1790140;80;21547;-63
2022/03/18 10:29:46;;;;;;;3.50;2.83;;;;;;;15.51;39.59;102469.09;1821003;78;21548;-65
2022/03/18 10:32:16;;;;;;;3.05;2.47;;;;;;;15.62;39.49;102475.70;1789480;80;21082;-65
2022/03/18 10:37:50;;;;;;;2.58;2.10;;;;;;;15.80;39.32;102469.27;1789395;80;21049;-64
2022/03/18 10:40:19;;;;;;;2.52;2.00;;;;;;;15.92;39.24;102470.00;1820091;78;21861;-65
2022/03/18 10:42:59;;;;;;;2.52;2.15;;;;;;;16.02;39.16;102465.50;1789232;80;21084;-64
2022/03/18 10:45:26;;;;;;;2.30;2.10;;;;;;;16.12;39.10;102470.89;1786061;80;21026;-65
2022/03/18 10:47:53;;;;;;;2.30;2.10;;;;;;;16.22;39.02;102465.54;1789227;80;21516;-64
2022/03/18 10:50:29;;;;;;;2.35;2.10;;;;;;;16.32;38.98;102466.39;1789284;80;21089;-65
2022/03/18 10:53:04;;;;;;;3.37;2.65;;;;;;;16.42;38.92;102465.92;1783672;79;21262;-65
2022/03/18 10:55:42;;;;;;;2.40;2.20;;;;;;;16.52;38.88;102475.33;1801563;79;21044;-64
2022/03/18 10:58:15;;;;;;;2.30;2.10;;;;;;;16.62;38.85;102470.80;1787532;79;21038;-63
2022/03/18 11:00:49;;;;;;;2.30;2.10;;;;;;;16.73;38.80;102477.87;1770325;81;21002;-64
2022/03/18 11:03:16;;;;;;;2.70;2.30;;;;;;;16.83;38.78;102472.53;1770344;81;21012;-64
2022/03/18 11:05:47;;;;;;;2.52;2.33;;;;;;;16.93;38.70;102471.17;1770490;81;21305;-65
2022/03/18 11:08:22;;;;;;;2.45;2.25;;;;;;;17.03;38.66;102462.59;1770372;81;20994;-64
2022/03/18 11:11:14;;;;;;;2.33;2.12;;;;;;;17.13;38.65;102459.89;1770449;81;21087;-64
2022/03/18 11:14:03;;;;;;;2.25;2.05;;;;;;;17.24;38.60;102462.41;1770389;81;22091;-64
2022/03/18 11:16:36;;;;;;;2.25;2.05;;;;;;;17.36;38.53;102461.73;1758067;81;21521;-64
2022/03/18 11:19:05;;;;;;;2.35;2.15;;;;;;;17.46;38.49;102451.31;1789644;80;21251;-64
2022/03/18 11:21:36;;;;;;;2.75;2.12;;;;;;;17.57;38.45;102462.86;1789392;80;21065;-65
2022/03/18 11:24:15;;;;;;;2.00;1.90;;;;;;;17.67;38.40;102461.84;1758094;80;21113;-65
2022/03/18 11:26:46;;;;;;;2.10;1.90;;;;;;;17.77;38.36;102453.72;1789382;80;21046;-65
2022/03/18 11:29:16;;;;;;;2.37;1.95;;;;;;;17.88;38.31;102446.80;1789467;80;21095;-65
2022/03/18 11:31:43;;;;;;;2.15;1.95;;;;;;;17.99;38.27;102442.23;1795488;78;21137;-64
2022/03/18 11:34:15;;;;;;;2.15;1.90;;;;;;;18.10;38.21;102445.19;1789013;80;21017;-64
2022/03/18 11:36:55;;;;;;;1.90;1.80;;;;;;;18.20;38.21;102445.98;1789110;80;21463;-64
2022/03/18 11:39:22;;;;;;;2.35;2.08;;;;;;;18.31;38.17;102442.21;1782997;80;21509;-64
2022/03/18 11:41:55;;;;;;;2.15;1.95;;;;;;;18.42;38.12;102437.95;1789218;80;21088;-65
2022/03/18 11:44:52;;;;;;;2.33;2.02;;;;;;;18.53;38.07;102430.98;1789359;80;21257;-64
2022/03/18 11:47:33;;;;;;;2.22;2.02;;;;;;;18.64;38.00;102430.75;1784467;80;21025;-64
2022/03/18 11:50:02;;;;;;;2.67;2.33;;;;;;;18.77;37.93;102436.22;1799897;79;21379;-65
2022/03/18 11:52:29;;;;;;;2.20;2.00;;;;;;;18.89;37.86;102430.97;1801956;79;21013;-64
2022/03/18 11:55:10;;;;;;;2.20;2.00;;;;;;;19.01;37.78;102433.73;1770975;79;21052;-64